Hlavní strana
METAR-TAF:

METAR-TAF

Letiště :

Ouagadougou, Burkina Faso

zeměpisná šířka: 12-21N, zeměpisná délka: 001-31W, výška: 316 m

Aktuální stav počasí

Zpráva byla vytvořena před 55 minutami, v 00:00 UTC
Východoseverovýchodní vítr 3 kt
Teplota 23°C
Vlhkost vzduchu 41%
Tlak 1013 hPa
Viditelnost: 8000 m

METAR: DFFD 080000Z 06003KT 8000 NSC 23/09 Q1013 NOSIG

Čas: 00:55 (00:55 UTC)

Předpověď počasí

Zpráva byla vytvořena před 1 hodinou a 55 minutami, v 23:00 UTC
Předpověď platná od 08 v 00 UTC do 09 v 06 UTC
Východoseverovýchodní vítr 8 kt
Viditelnost: 8000 m
Dočasný
od 08 v 06 UTC do 08 v 09 UTC
Viditelnost: 3500 m
zákal
Dočasný
od 08 v 17 UTC do 08 v 20 UTC
Viditelnost: 4000 m
zákal

TAF: DFFD 072300Z 0800/0906 06008KT 8000 NSC TEMPO 0806/0809 3500 HZ TEMPO 0817/0820 4000 HZ

Stav a předpovědi počasí z více než 4 000 letišť (zprávy METAR a TAF).

Červené a žluté tečky na mapě představují dostupné meteorologické stanice.

Když kurzor umístíte na tečku, zobrazí se název stanice.

Pak kliknutím zobrazíte stav a předpověď počasí.

Chcete-li změnit mapu, kliknutím na zelené tlačítko se znaménkem +mapu přiblížíte, kliknutím na zelené tlačítko se znaménkem – mapu oddálíte a kliknutím na zelené šipky přejdete na sousední mapy.


METAR-TAF: